createdAt,value
2018-06-07T00:00:44.625Z,53.40
2018-06-07T00:02:46.915Z,53.60
2018-06-07T00:04:49.068Z,53.30
2018-06-07T00:06:51.197Z,53.60
2018-06-07T00:08:53.341Z,53.40
2018-06-07T00:10:55.554Z,53.20
2018-06-07T00:12:57.725Z,53.00
2018-06-07T00:14:59.893Z,53.30
2018-06-07T00:17:02.053Z,53.20
2018-06-07T00:19:04.214Z,53.20
2018-06-07T00:21:06.406Z,52.70
2018-06-07T00:23:08.586Z,52.40
2018-06-07T00:25:10.721Z,52.50
2018-06-07T00:27:12.887Z,52.50
2018-06-07T00:29:15.049Z,52.40
2018-06-07T00:31:17.193Z,52.40
2018-06-07T00:33:19.346Z,52.30
2018-06-07T00:35:21.530Z,52.70
2018-06-07T00:37:23.694Z,52.90
2018-06-07T00:39:26.157Z,52.80
2018-06-07T00:41:28.303Z,52.80
2018-06-07T00:43:30.468Z,52.70
2018-06-07T00:45:32.617Z,52.70
2018-06-07T00:47:34.757Z,52.90
2018-06-07T00:49:36.917Z,53.10
2018-06-07T00:51:39.093Z,53.20
2018-06-07T00:53:41.241Z,53.60
2018-06-07T00:55:43.409Z,53.20
2018-06-07T00:57:45.593Z,53.20
2018-06-07T00:59:47.745Z,53.20
2018-06-07T01:01:49.893Z,53.10
2018-06-07T01:03:52.057Z,53.50
2018-06-07T01:05:54.436Z,53.50
2018-06-07T01:07:56.586Z,53.60
2018-06-07T01:09:58.736Z,53.50
2018-06-07T01:12:02.179Z,53.80
2018-06-07T01:14:04.345Z,53.60
2018-06-07T01:16:06.497Z,53.70
2018-06-07T01:18:08.647Z,54.00
2018-06-07T01:20:10.813Z,54.00
2018-06-07T01:24:22.038Z,53.90
2018-06-07T01:26:24.193Z,54.20
2018-06-07T01:28:26.369Z,54.30
2018-06-07T01:32:39.090Z,54.30
2018-06-07T01:34:41.253Z,54.50
2018-06-07T01:36:43.419Z,54.70
2018-06-07T01:39:21.541Z,54.90
2018-06-07T01:41:23.711Z,55.00
2018-06-07T01:43:25.865Z,55.00
2018-06-07T01:45:28.054Z,55.00
2018-06-07T01:47:30.197Z,55.30
2018-06-07T01:49:32.349Z,55.50
2018-06-07T01:51:34.553Z,55.80
2018-06-07T01:53:36.709Z,55.70
2018-06-07T01:55:38.864Z,55.60
2018-06-07T01:57:41.048Z,55.70
2018-06-07T01:59:43.201Z,55.70
2018-06-07T02:01:45.402Z,55.70
2018-06-07T02:03:47.565Z,55.80
2018-06-07T02:05:49.721Z,56.10
2018-06-07T02:07:51.898Z,56.10
2018-06-07T02:09:54.069Z,56.20
2018-06-07T02:11:56.240Z,56.30
2018-06-07T02:13:58.414Z,56.70
2018-06-07T02:16:00.565Z,56.80
2018-06-07T02:18:02.797Z,56.50
2018-06-07T02:20:05.113Z,57.00
2018-06-07T02:22:07.305Z,56.90
2018-06-07T02:24:09.570Z,56.90
2018-06-07T02:26:11.737Z,56.70
2018-06-07T02:28:13.885Z,56.80
2018-06-07T02:30:16.030Z,56.70
2018-06-07T02:32:18.188Z,56.90
2018-06-07T02:34:20.657Z,57.00
2018-06-07T02:36:22.809Z,56.90
2018-06-07T02:38:24.973Z,56.60
2018-06-07T02:40:27.177Z,56.80
2018-06-07T02:42:29.317Z,57.10
2018-06-07T02:44:31.485Z,57.70
2018-06-07T02:46:33.653Z,57.80
2018-06-07T02:48:35.821Z,57.60
2018-06-07T02:50:37.993Z,57.50
2018-06-07T02:52:40.173Z,57.10
2018-06-07T02:54:42.349Z,57.20
2018-06-07T02:56:44.547Z,57.30
2018-06-07T02:58:46.729Z,57.60
2018-06-07T03:00:48.885Z,57.90
2018-06-07T03:02:51.190Z,58.00
2018-06-07T03:04:53.345Z,58.20
2018-06-07T03:06:55.509Z,58.10
2018-06-07T03:08:58.201Z,57.70
2018-06-07T03:11:00.363Z,57.80
2018-06-07T03:13:02.533Z,58.10
2018-06-07T03:15:04.733Z,57.90
2018-06-07T03:17:06.883Z,57.70
2018-06-07T03:19:09.373Z,57.80
2018-06-07T03:21:11.551Z,57.90
2018-06-07T03:23:13.736Z,57.90
2018-06-07T03:25:15.953Z,58.20
2018-06-07T03:27:18.142Z,57.80
2018-06-07T03:29:20.306Z,57.90
2018-06-07T03:31:22.512Z,58.00
2018-06-07T03:33:24.661Z,58.50
2018-06-07T03:35:27.305Z,58.30
2018-06-07T03:37:29.479Z,58.10
2018-06-07T03:39:31.649Z,58.20
2018-06-07T03:41:33.821Z,58.40
2018-06-07T03:43:36.278Z,58.10
2018-06-07T03:45:38.449Z,58.30
2018-06-07T03:47:40.637Z,58.60
2018-06-07T03:49:42.788Z,58.40
2018-06-07T03:51:44.941Z,58.60
2018-06-07T03:53:47.093Z,58.40
2018-06-07T03:55:49.310Z,58.40
2018-06-07T03:57:51.469Z,58.70
2018-06-07T03:59:53.617Z,58.70
2018-06-07T04:01:55.805Z,58.80
2018-06-07T04:03:57.959Z,58.10
2018-06-07T04:06:00.129Z,58.60
2018-06-07T04:08:02.304Z,58.80
2018-06-07T04:10:04.457Z,59.10
2018-06-07T04:12:06.657Z,59.10
2018-06-07T04:14:08.817Z,59.00
2018-06-07T04:16:11.025Z,59.10
2018-06-07T04:18:13.430Z,59.50
2018-06-07T04:20:15.593Z,59.40
2018-06-07T04:22:17.750Z,59.10
2018-06-07T04:24:19.885Z,59.20
2018-06-07T04:26:22.038Z,59.00
2018-06-07T04:28:24.240Z,58.60
2018-06-07T04:30:26.385Z,58.60
2018-06-07T04:32:28.522Z,58.70
2018-06-07T04:34:30.741Z,58.60
2018-06-07T04:36:32.919Z,58.30
2018-06-07T04:38:35.106Z,58.10
2018-06-07T04:40:37.269Z,58.00
2018-06-07T04:42:39.689Z,58.20
2018-06-07T04:44:41.841Z,58.30
2018-06-07T04:46:43.973Z,58.10
2018-06-07T04:48:46.166Z,57.90
2018-06-07T04:50:48.337Z,58.50
2018-06-07T04:52:50.481Z,58.00
2018-06-07T04:54:52.621Z,57.40
2018-06-07T04:56:54.795Z,57.10
2018-06-07T04:58:56.941Z,57.60
2018-06-07T05:00:59.107Z,57.70
2018-06-07T05:03:01.558Z,57.00
2018-06-07T05:05:03.782Z,57.10
2018-06-07T05:07:05.926Z,56.50
2018-06-07T05:09:08.142Z,56.10
2018-06-07T05:11:10.302Z,56.60
2018-06-07T05:13:12.511Z,56.80
2018-06-07T05:15:14.702Z,56.90
2018-06-07T05:17:16.910Z,56.90
2018-06-07T05:19:19.067Z,56.90
2018-06-07T05:21:21.849Z,56.40
2018-06-07T05:23:24.021Z,56.50
2018-06-07T05:25:26.206Z,55.90
2018-06-07T05:27:28.387Z,56.40
2018-06-07T05:29:30.528Z,56.20
2018-06-07T05:31:32.672Z,56.50
2018-06-07T05:33:35.670Z,56.30
2018-06-07T05:35:37.809Z,56.20
2018-06-07T05:37:40.021Z,56.20
2018-06-07T05:39:42.185Z,55.70
2018-06-07T05:41:44.355Z,56.50
2018-06-07T05:43:46.503Z,56.90
2018-06-07T05:45:49.064Z,56.70
2018-06-07T05:47:51.221Z,56.70
2018-06-07T05:49:53.401Z,56.70
2018-06-07T05:51:55.633Z,56.40
2018-06-07T05:53:57.779Z,56.20
2018-06-07T05:55:59.939Z,56.20
2018-06-07T05:58:02.099Z,56.60
2018-06-07T06:00:04.698Z,55.90
2018-06-07T06:02:06.873Z,55.50
2018-06-07T06:04:09.037Z,55.70
2018-06-07T06:06:11.245Z,55.50
2018-06-07T06:08:13.419Z,55.80
2018-06-07T06:10:15.624Z,56.00
2018-06-07T06:12:17.820Z,55.40
2018-06-07T06:14:19.937Z,55.90
2018-06-07T06:16:22.089Z,55.80
2018-06-07T06:18:24.238Z,55.60
2018-06-07T06:20:26.421Z,55.60
2018-06-07T06:22:28.567Z,55.80
2018-06-07T06:24:31.993Z,56.30
2018-06-07T06:26:34.167Z,55.70
2018-06-07T06:28:36.314Z,56.10
2018-06-07T06:30:38.525Z,55.70
2018-06-07T06:32:40.713Z,55.10
2018-06-07T06:34:42.932Z,54.50
2018-06-07T06:36:48.763Z,55.60
2018-06-07T06:38:51.350Z,55.30
2018-06-07T06:40:53.658Z,55.20
2018-06-07T06:42:55.877Z,55.30
2018-06-07T06:44:58.117Z,54.90
2018-06-07T06:47:00.342Z,55.10
2018-06-07T06:49:02.573Z,54.30
2018-06-07T06:51:04.808Z,55.00
2018-06-07T06:53:08.601Z,55.10
2018-06-07T06:55:13.698Z,54.90
2018-06-07T06:57:18.067Z,54.50
2018-06-07T06:59:20.434Z,54.00
2018-06-07T07:01:22.782Z,54.50
2018-06-07T07:03:25.122Z,54.00
2018-06-07T07:05:27.439Z,54.10
2018-06-07T07:07:29.915Z,54.40
2018-06-07T07:09:32.218Z,54.60
2018-06-07T07:11:34.606Z,53.90
2018-06-07T07:13:36.886Z,54.20
2018-06-07T07:15:39.451Z,54.00
2018-06-07T07:17:48.509Z,53.60
2018-06-07T07:19:50.839Z,53.80
2018-06-07T07:21:53.178Z,54.40
2018-06-07T07:23:55.496Z,54.50
2018-06-07T07:25:57.762Z,54.00
2018-06-07T07:28:00.111Z,53.50
2018-06-07T07:30:02.489Z,53.20
2018-06-07T07:32:04.971Z,53.70
2018-06-07T07:34:07.362Z,53.00
2018-06-07T07:36:09.662Z,52.50
2018-06-07T07:38:11.962Z,52.60
2018-06-07T07:40:14.305Z,52.00
2018-06-07T07:42:16.660Z,52.10
2018-06-07T07:44:18.958Z,52.30
2018-06-07T07:46:21.295Z,52.30
2018-06-07T07:48:23.595Z,52.50
2018-06-07T07:50:26.007Z,52.10
2018-06-07T07:52:28.322Z,52.80
2018-06-07T07:54:30.713Z,52.30
2018-06-07T07:56:33.050Z,52.30
2018-06-07T07:58:35.687Z,51.90
2018-06-07T08:00:38.776Z,50.60
2018-06-07T08:02:41.034Z,50.60
2018-06-07T08:04:43.337Z,50.60
2018-06-07T08:06:45.631Z,50.30
2018-06-07T08:08:47.855Z,50.90
2018-06-07T08:10:50.140Z,50.60
2018-06-07T08:12:52.536Z,50.50
2018-06-07T08:14:54.839Z,49.40
2018-06-07T08:16:57.219Z,49.00
2018-06-07T08:18:59.542Z,49.00
2018-06-07T08:21:01.929Z,48.80
2018-06-07T08:23:04.278Z,49.30
2018-06-07T08:25:06.617Z,49.30
2018-06-07T08:27:09.183Z,48.50
2018-06-07T08:29:11.563Z,48.60
2018-06-07T08:31:16.523Z,48.70
2018-06-07T08:33:18.969Z,48.50
2018-06-07T08:35:21.396Z,48.60
2018-06-07T08:37:23.821Z,48.30
2018-06-07T08:39:26.277Z,47.90
2018-06-07T08:41:28.671Z,47.10
2018-06-07T08:43:31.240Z,47.30
2018-06-07T08:45:33.627Z,47.60
2018-06-07T08:47:36.028Z,46.90
2018-06-07T08:49:38.527Z,47.40
2018-06-07T08:51:40.951Z,47.90
2018-06-07T08:53:43.300Z,46.50
2018-06-07T08:55:45.595Z,46.50
2018-06-07T08:57:47.981Z,46.50
2018-06-07T08:59:50.451Z,46.30
2018-06-07T09:01:52.817Z,46.00
2018-06-07T09:03:55.191Z,45.60
2018-06-07T09:05:57.514Z,45.90
2018-06-07T09:07:59.898Z,46.10
2018-06-07T09:10:02.222Z,45.90
2018-06-07T09:12:04.602Z,44.90
2018-06-07T09:14:07.176Z,45.00
2018-06-07T09:16:09.773Z,44.30
2018-06-07T09:18:12.209Z,45.00
2018-06-07T09:20:14.683Z,44.60
2018-06-07T09:22:17.199Z,44.50
2018-06-07T09:24:19.597Z,45.30
2018-06-07T09:26:22.014Z,45.50
2018-06-07T09:28:24.347Z,45.00
2018-06-07T09:30:26.846Z,44.50
2018-06-07T09:32:29.181Z,44.30
2018-06-07T09:34:31.606Z,44.30
2018-06-07T09:36:33.915Z,44.50
2018-06-07T09:38:36.321Z,44.00
2018-06-07T09:40:38.643Z,44.70
2018-06-07T09:42:45.956Z,44.20
2018-06-07T09:44:48.455Z,43.40
2018-06-07T09:46:50.834Z,43.20
2018-06-07T09:48:53.094Z,42.50
2018-06-07T09:50:55.411Z,42.70
2018-06-07T09:52:57.736Z,43.30
2018-06-07T09:55:00.150Z,43.50
2018-06-07T09:57:02.416Z,43.80
2018-06-07T09:59:04.759Z,42.90
2018-06-07T10:01:07.266Z,43.20
2018-06-07T10:03:09.590Z,42.70
2018-06-07T10:05:11.915Z,42.60
2018-06-07T10:07:14.249Z,42.40
2018-06-07T10:09:16.572Z,43.20
2018-06-07T10:11:18.891Z,42.80
2018-06-07T10:13:21.258Z,43.40
2018-06-07T10:15:23.700Z,43.20
2018-06-07T10:17:26.055Z,43.10
2018-06-07T10:19:28.435Z,42.50
2018-06-07T10:21:30.759Z,43.10
2018-06-07T10:23:33.016Z,43.00
2018-06-07T10:25:35.519Z,43.10
2018-06-07T10:27:37.806Z,42.70
2018-06-07T10:29:40.124Z,41.90
2018-06-07T10:31:42.337Z,41.80
2018-06-07T10:33:44.878Z,41.50
2018-06-07T10:35:47.361Z,42.00
2018-06-07T10:37:49.690Z,41.60
2018-06-07T10:39:52.252Z,41.00
2018-06-07T10:41:54.518Z,41.80
2018-06-07T10:43:56.760Z,41.80
2018-06-07T10:45:59.195Z,41.30
2018-06-07T10:48:01.461Z,41.40
2018-06-07T10:50:03.728Z,40.60
2018-06-07T10:52:06.160Z,40.80
2018-06-07T10:54:08.400Z,40.30
2018-06-07T10:56:10.709Z,40.50
2018-06-07T10:58:13.000Z,40.70
2018-06-07T11:00:15.348Z,40.80
2018-06-07T11:02:17.558Z,41.10
2018-06-07T11:04:19.898Z,39.80
2018-06-07T11:06:22.408Z,41.10
2018-06-07T11:08:24.772Z,39.90
2018-06-07T11:10:27.068Z,39.60
2018-06-07T11:12:29.327Z,39.80
2018-06-07T11:14:31.792Z,39.50
2018-06-07T11:16:34.538Z,39.80
2018-06-07T11:18:37.442Z,40.50
2018-06-07T11:20:39.779Z,39.70
2018-06-07T11:22:42.083Z,39.50
2018-06-07T11:24:44.279Z,40.30
2018-06-07T11:26:46.503Z,40.90
2018-06-07T11:28:48.867Z,40.40
2018-06-07T11:30:51.128Z,40.10
2018-06-07T11:32:53.360Z,40.50
2018-06-07T11:34:55.637Z,39.90
2018-06-07T11:36:58.057Z,39.00
2018-06-07T11:39:00.291Z,39.90
2018-06-07T11:41:02.772Z,39.60
2018-06-07T11:43:05.571Z,38.90
2018-06-07T11:45:07.948Z,40.20
2018-06-07T11:47:10.227Z,39.10
2018-06-07T11:49:12.467Z,39.00
2018-06-07T11:51:14.755Z,38.90
2018-06-07T11:53:17.079Z,38.60
2018-06-07T11:55:19.368Z,38.90
2018-06-07T11:57:21.626Z,39.00
2018-06-07T11:59:23.875Z,39.10
2018-06-07T12:01:26.096Z,38.40
2018-06-07T12:03:28.337Z,38.10
2018-06-07T12:05:30.557Z,38.70
2018-06-07T12:07:32.778Z,37.10
2018-06-07T12:09:35.344Z,37.30
2018-06-07T12:11:37.723Z,37.00
2018-06-07T12:13:39.927Z,36.80
2018-06-07T12:15:42.129Z,36.30
2018-06-07T12:17:44.379Z,36.40
2018-06-07T12:19:46.648Z,36.70
2018-06-07T12:21:49.089Z,38.30
2018-06-07T12:23:51.431Z,38.00
2018-06-07T12:25:53.691Z,37.50
2018-06-07T12:27:55.963Z,37.60
2018-06-07T12:29:58.223Z,37.20
2018-06-07T12:32:00.459Z,36.30
2018-06-07T12:34:02.716Z,36.00
2018-06-07T12:36:04.936Z,36.20
2018-06-07T12:38:07.151Z,36.80
2018-06-07T12:40:09.432Z,35.80
2018-06-07T12:42:11.544Z,36.20
2018-06-07T12:44:13.750Z,35.90
2018-06-07T12:46:15.984Z,34.80
2018-06-07T12:48:18.200Z,35.10
2018-06-07T12:50:20.483Z,34.80
2018-06-07T12:52:22.684Z,34.50
2018-06-07T12:54:24.867Z,34.50
2018-06-07T12:56:27.075Z,34.90
2018-06-07T12:58:29.257Z,35.70
2018-06-07T13:00:31.542Z,36.10
2018-06-07T13:02:33.702Z,35.00
2018-06-07T13:04:35.907Z,35.50
2018-06-07T13:06:38.127Z,35.60
2018-06-07T13:08:40.311Z,35.10
2018-06-07T13:10:42.674Z,34.60
2018-06-07T13:12:45.200Z,34.10
2018-06-07T13:14:47.626Z,33.20
2018-06-07T13:16:50.491Z,32.80
2018-06-07T13:18:52.846Z,31.90
2018-06-07T13:20:55.060Z,32.40
2018-06-07T13:22:57.412Z,32.60
2018-06-07T13:24:59.731Z,31.80
2018-06-07T13:27:02.103Z,32.50
2018-06-07T13:29:04.514Z,32.40
2018-06-07T13:31:06.798Z,32.60
2018-06-07T13:33:09.080Z,32.50
2018-06-07T13:35:11.362Z,31.60
2018-06-07T13:37:13.659Z,31.80
2018-06-07T13:39:16.198Z,32.80
2018-06-07T13:41:18.667Z,31.80
2018-06-07T13:43:20.999Z,31.00
2018-06-07T13:45:23.312Z,30.10
2018-06-07T13:47:25.691Z,32.60
2018-06-07T13:49:27.966Z,33.30
2018-06-07T13:51:30.287Z,32.30
2018-06-07T13:53:32.636Z,30.70
2018-06-07T13:55:34.843Z,30.50
2018-06-07T13:57:38.095Z,30.20
2018-06-07T13:59:40.292Z,30.50
2018-06-07T14:01:42.429Z,32.20
2018-06-07T14:03:44.619Z,32.10
2018-06-07T14:05:46.871Z,31.20
2018-06-07T14:07:49.059Z,30.10
2018-06-07T14:09:51.232Z,28.00
2018-06-07T14:11:53.393Z,29.20
2018-06-07T14:13:55.545Z,30.50
2018-06-07T14:15:57.681Z,31.50
2018-06-07T14:17:59.878Z,32.30
2018-06-07T14:20:02.385Z,31.60
2018-06-07T14:22:04.720Z,29.90
2018-06-07T14:24:07.177Z,28.60
2018-06-07T14:26:09.416Z,28.40
2018-06-07T14:28:11.817Z,28.40
2018-06-07T14:30:14.060Z,27.80
2018-06-07T14:32:16.259Z,30.00
2018-06-07T14:34:18.503Z,30.90
2018-06-07T14:36:20.699Z,30.80
2018-06-07T14:38:22.851Z,31.50
2018-06-07T14:40:25.032Z,31.60
2018-06-07T14:42:27.216Z,32.30
2018-06-07T14:44:29.436Z,33.40
2018-06-07T14:46:31.640Z,33.10
2018-06-07T14:48:33.797Z,33.60
2018-06-07T14:50:35.923Z,34.30
2018-06-07T14:52:38.088Z,35.00
2018-06-07T14:54:40.228Z,35.60
2018-06-07T14:56:42.391Z,35.90
2018-06-07T14:58:44.548Z,37.30
2018-06-07T15:00:46.702Z,38.00
2018-06-07T15:02:49.580Z,37.80
2018-06-07T15:04:51.752Z,38.20
2018-06-07T15:06:53.947Z,38.40
2018-06-07T15:08:56.132Z,38.90
2018-06-07T15:10:58.384Z,35.20
2018-06-07T15:13:00.623Z,35.30
2018-06-07T15:15:02.909Z,36.10
2018-06-07T15:17:05.185Z,36.90
2018-06-07T15:19:07.348Z,37.30
2018-06-07T15:21:09.521Z,37.10
2018-06-07T15:23:11.703Z,37.50
2018-06-07T15:25:13.930Z,37.20
2018-06-07T15:27:16.079Z,37.50
2018-06-07T15:29:18.339Z,37.40
2018-06-07T15:31:20.567Z,37.70
2018-06-07T15:33:22.733Z,37.80
2018-06-07T15:35:24.907Z,38.20
2018-06-07T15:37:27.087Z,37.70
2018-06-07T15:39:29.383Z,37.80
2018-06-07T15:41:31.791Z,37.80
2018-06-07T15:43:33.927Z,38.50
2018-06-07T15:45:36.063Z,38.60
2018-06-07T15:47:38.241Z,39.50
2018-06-07T15:49:40.431Z,39.90
2018-06-07T15:51:42.667Z,40.00
2018-06-07T15:53:44.923Z,39.80
2018-06-07T15:55:47.101Z,39.50
2018-06-07T15:57:49.237Z,39.40
2018-06-07T15:59:51.465Z,39.60
2018-06-07T16:01:54.432Z,40.10
2018-06-07T16:03:57.298Z,40.20
2018-06-07T16:05:59.912Z,40.10
2018-06-07T16:08:02.237Z,39.80
2018-06-07T16:10:04.416Z,38.90
2018-06-07T16:12:06.773Z,38.90
2018-06-07T16:14:08.963Z,39.60
2018-06-07T16:16:11.115Z,39.50
2018-06-07T16:18:13.305Z,40.00
2018-06-07T16:20:15.520Z,39.50
2018-06-07T16:22:17.711Z,40.20
2018-06-07T16:24:19.915Z,40.20
2018-06-07T16:26:22.138Z,40.10
2018-06-07T16:28:24.323Z,40.50
2018-06-07T16:30:26.534Z,40.70
2018-06-07T16:32:28.730Z,40.00
2018-06-07T16:34:30.874Z,40.10
2018-06-07T16:36:33.102Z,40.40
2018-06-07T16:38:35.278Z,40.90
2018-06-07T16:40:37.492Z,41.00
2018-06-07T16:42:39.946Z,39.90
2018-06-07T16:44:42.116Z,40.50
2018-06-07T16:47:38.257Z,40.70
2018-06-07T16:49:40.515Z,40.40
2018-06-07T16:51:42.726Z,40.30
2018-06-07T16:53:53.126Z,40.60
2018-06-07T16:55:55.455Z,40.30
2018-06-07T16:57:58.409Z,40.80
2018-06-07T17:00:02.215Z,40.60
2018-06-07T17:02:04.424Z,40.20
2018-06-07T17:04:06.600Z,40.40
2018-06-07T17:06:08.806Z,41.30
2018-06-07T17:08:10.991Z,41.20
2018-06-07T17:10:13.139Z,41.10
2018-06-07T17:12:16.913Z,40.40
2018-06-07T17:16:43.284Z,41.10
2018-06-07T17:18:47.705Z,41.90
2018-06-07T17:20:52.150Z,41.80
2018-06-07T17:22:54.609Z,42.00
2018-06-07T17:24:57.349Z,41.30
2018-06-07T17:27:01.471Z,40.80
2018-06-07T17:29:07.328Z,40.80
2018-06-07T17:31:10.361Z,40.80
2018-06-07T17:33:13.700Z,41.20
2018-06-07T17:35:15.983Z,41.10
2018-06-07T17:37:18.255Z,42.00
2018-06-07T17:39:20.471Z,42.70
2018-06-07T17:41:22.611Z,42.90
2018-06-07T17:43:24.834Z,42.90
2018-06-07T17:45:27.370Z,42.60
2018-06-07T17:47:29.531Z,42.90
2018-06-07T17:49:31.700Z,41.80
2018-06-07T17:51:33.858Z,42.20
2018-06-07T17:53:36.041Z,42.20
2018-06-07T17:55:38.520Z,42.90
2018-06-07T17:57:40.694Z,43.00
2018-06-07T17:59:42.855Z,43.10
2018-06-07T18:01:45.228Z,43.30
2018-06-07T18:03:47.407Z,43.60
2018-06-07T18:05:49.570Z,43.50
2018-06-07T18:07:51.741Z,42.80
2018-06-07T18:09:53.915Z,42.90
2018-06-07T18:11:56.115Z,43.00
2018-06-07T18:13:58.474Z,45.40
2018-06-07T18:16:00.658Z,47.00
2018-06-07T18:18:02.872Z,49.60
2018-06-07T18:20:05.051Z,50.60
2018-06-07T18:22:07.273Z,50.70
2018-06-07T18:24:09.567Z,51.00
2018-06-07T18:26:11.834Z,51.50
2018-06-07T18:28:14.049Z,51.90
2018-06-07T18:30:16.231Z,51.90
2018-06-07T18:32:18.371Z,51.80
2018-06-07T18:34:20.658Z,51.60
2018-06-07T18:36:23.699Z,51.50
2018-06-07T18:38:26.003Z,51.40
2018-06-07T18:40:28.191Z,51.50
2018-06-07T18:42:30.573Z,51.60
2018-06-07T18:44:32.889Z,51.50
2018-06-07T18:46:35.056Z,51.40
2018-06-07T18:48:37.227Z,51.40
2018-06-07T18:50:39.673Z,51.40
2018-06-07T18:52:41.840Z,51.60
2018-06-07T18:54:44.055Z,51.80
2018-06-07T18:56:46.235Z,51.90
2018-06-07T18:58:48.426Z,52.00
2018-06-07T19:00:50.613Z,52.20
2018-06-07T19:02:52.834Z,52.30
2018-06-07T19:04:55.023Z,52.40
2018-06-07T19:06:57.248Z,52.10
2018-06-07T19:11:08.223Z,51.60
2018-06-07T19:13:16.225Z,51.60
2018-06-07T19:15:18.457Z,51.40
2018-06-07T19:17:20.726Z,51.20
2018-06-07T19:19:28.879Z,51.10
2018-06-07T19:21:31.095Z,51.40
2018-06-07T19:23:33.259Z,51.50
2018-06-07T19:27:48.019Z,51.60
2018-06-07T19:29:50.246Z,51.80
2018-06-07T19:31:58.155Z,52.00
2018-06-07T19:34:06.051Z,52.10
2018-06-07T19:36:08.508Z,51.90
2018-06-07T19:38:11.049Z,52.10
2018-06-07T19:40:20.078Z,52.50
2018-06-07T19:42:22.547Z,52.30
2018-06-07T19:44:24.778Z,52.20
2018-06-07T19:46:26.933Z,52.20
2018-06-07T19:48:29.194Z,52.10
2018-06-07T19:50:31.453Z,52.20
2018-06-07T19:52:33.947Z,52.40
2018-06-07T19:54:36.157Z,52.50
2018-06-07T19:56:38.588Z,52.70
2018-06-07T19:58:40.807Z,52.70
2018-06-07T20:00:43.629Z,52.80
2018-06-07T20:02:45.811Z,53.10
2018-06-07T20:04:47.969Z,53.40
2018-06-07T20:06:50.121Z,53.30
2018-06-07T20:08:52.318Z,52.90
2018-06-07T20:10:54.463Z,52.70
2018-06-07T20:12:56.658Z,52.70
2018-06-07T20:14:58.833Z,53.00
2018-06-07T20:17:01.027Z,53.10
2018-06-07T20:19:03.247Z,53.50
2018-06-07T20:21:05.423Z,54.10
2018-06-07T20:23:07.588Z,54.20
2018-06-07T20:25:09.736Z,54.50
2018-06-07T20:27:11.883Z,54.60
2018-06-07T20:29:14.447Z,54.60
2018-06-07T20:31:16.653Z,54.20
2018-06-07T20:33:18.923Z,54.30
2018-06-07T20:35:21.148Z,53.60
2018-06-07T20:37:23.363Z,52.90
2018-06-07T20:39:25.722Z,52.60
2018-06-07T20:41:27.907Z,52.60
2018-06-07T20:43:30.079Z,52.50
2018-06-07T20:45:32.371Z,52.60
2018-06-07T20:47:34.550Z,53.10
2018-06-07T20:49:36.710Z,53.00
2018-06-07T20:51:38.871Z,52.80
2018-06-07T20:53:41.344Z,53.30
2018-06-07T20:55:43.489Z,53.30
2018-06-07T20:57:45.836Z,53.20
2018-06-07T20:59:47.994Z,53.30
2018-06-07T21:01:50.175Z,53.60
2018-06-07T21:03:52.415Z,53.60
2018-06-07T21:05:54.603Z,53.20
2018-06-07T21:07:58.234Z,53.50
2018-06-07T21:10:01.833Z,53.50
2018-06-07T21:12:03.980Z,53.70
2018-06-07T21:14:06.187Z,53.60
2018-06-07T21:16:08.360Z,53.50
2018-06-07T21:18:10.567Z,54.00
2018-06-07T21:20:12.783Z,53.80
2018-06-07T21:22:15.000Z,54.10
2018-06-07T21:24:17.222Z,54.30
2018-06-07T21:26:19.412Z,54.00
2018-06-07T21:28:21.627Z,54.40
2018-06-07T21:30:23.840Z,54.70
2018-06-07T21:32:26.031Z,55.00
2018-06-07T21:34:28.247Z,55.10
2018-06-07T21:36:30.430Z,55.40
2018-06-07T21:38:32.572Z,55.70
2018-06-07T21:40:34.757Z,55.70
2018-06-07T21:42:36.963Z,56.20
2018-06-07T21:44:39.179Z,56.10
2018-06-07T21:46:41.455Z,56.20
2018-06-07T21:48:43.619Z,56.10
2018-06-07T21:50:45.893Z,56.70
2018-06-07T21:52:48.156Z,57.10
2018-06-07T21:54:50.336Z,57.30
2018-06-07T21:56:52.596Z,57.70
2018-06-07T21:58:54.922Z,58.00
2018-06-07T22:00:57.272Z,58.10
2018-06-07T22:02:59.490Z,58.50
2018-06-07T22:05:17.943Z,58.30
2018-06-07T22:07:20.133Z,58.40
2018-06-07T22:09:22.359Z,58.90
2018-06-07T22:11:26.282Z,59.50
2018-06-07T22:13:28.468Z,59.50
2018-06-07T22:15:30.992Z,59.40
2018-06-07T22:17:33.171Z,59.00
2018-06-07T22:19:35.315Z,59.30
2018-06-07T22:21:37.420Z,59.10
2018-06-07T22:23:39.630Z,59.00
2018-06-07T22:25:41.755Z,58.70
2018-06-07T22:27:48.545Z,58.70
2018-06-07T22:29:50.645Z,58.70
2018-06-07T22:31:53.056Z,59.10
2018-06-07T22:33:55.535Z,59.00
2018-06-07T22:35:57.764Z,59.40
2018-06-07T22:37:59.896Z,59.50
2018-06-07T22:40:02.475Z,59.80
2018-06-07T22:42:04.575Z,59.70
2018-06-07T22:44:06.834Z,60.00
2018-06-07T22:46:08.926Z,60.20
2018-06-07T22:48:10.999Z,60.70
2018-06-07T22:50:13.087Z,61.00
2018-06-07T22:52:15.152Z,60.90
2018-06-07T22:54:17.231Z,60.90
2018-06-07T22:56:19.331Z,61.00
2018-06-07T22:58:21.415Z,61.80
2018-06-07T23:00:23.529Z,62.20
2018-06-07T23:02:25.599Z,62.40
2018-06-07T23:04:27.692Z,62.40
2018-06-07T23:06:29.802Z,62.50
2018-06-07T23:08:31.887Z,62.40
2018-06-07T23:10:33.988Z,62.50
2018-06-07T23:12:36.083Z,61.90
2018-06-07T23:14:38.148Z,61.90
2018-06-07T23:16:40.263Z,61.70
2018-06-07T23:18:42.525Z,61.60
2018-06-07T23:20:44.606Z,61.90
2018-06-07T23:22:46.679Z,62.30
2018-06-07T23:24:48.771Z,62.60
2018-06-07T23:26:50.850Z,63.10
2018-06-07T23:28:52.937Z,62.70
2018-06-07T23:30:55.199Z,62.90
2018-06-07T23:32:57.287Z,63.20
2018-06-07T23:34:59.363Z,63.20
2018-06-07T23:37:01.462Z,63.10
2018-06-07T23:39:06.588Z,63.10
2018-06-07T23:41:08.663Z,62.80
2018-06-07T23:43:10.783Z,62.40
2018-06-07T23:45:12.859Z,62.60
2018-06-07T23:47:14.927Z,62.50
2018-06-07T23:49:17.007Z,62.70
2018-06-07T23:51:19.148Z,63.10
2018-06-07T23:53:21.211Z,63.20
2018-06-07T23:55:23.315Z,63.00
2018-06-07T23:57:25.435Z,63.10
2018-06-07T23:59:27.527Z,63.50
